createdAt,value
2022-10-20T06:15:26.997Z,1012.85
2022-10-20T06:25:26.992Z,1013.01
2022-10-20T06:35:26.997Z,1012.91
2022-10-20T06:45:27.024Z,1013.09
2022-10-20T06:55:27.024Z,1012.96
2022-10-20T07:05:27.019Z,1012.90
2022-10-20T07:15:27.156Z,1012.70
2022-10-20T07:25:27.247Z,1012.69
2022-10-20T07:35:27.049Z,1012.51
2022-10-20T07:45:27.159Z,1012.39
2022-10-20T07:55:38.101Z,1012.24
2022-10-20T08:05:27.039Z,1012.28
2022-10-20T08:15:27.137Z,1012.17
2022-10-20T08:25:26.999Z,1012.17
2022-10-20T08:35:27.233Z,1012.05
2022-10-20T08:45:27.153Z,1011.99
2022-10-20T08:55:27.184Z,1011.90
2022-10-20T09:05:27.231Z,1011.61
2022-10-20T09:15:27.042Z,1011.40
2022-10-20T09:25:27.076Z,1011.59
2022-10-20T09:35:27.021Z,1011.33
2022-10-20T09:45:27.132Z,1011.55
2022-10-20T09:55:27.482Z,1011.48
2022-10-20T10:05:27.367Z,1011.36
2022-10-20T10:15:27.511Z,1010.80
2022-10-20T10:25:27.901Z,1010.68
2022-10-20T10:35:27.928Z,1010.70
2022-10-20T10:45:28.065Z,1010.58
2022-10-20T10:55:47.802Z,1010.36
2022-10-20T11:05:27.963Z,1010.03
2022-10-20T11:15:28.096Z,1009.98
2022-10-20T11:25:28.155Z,1009.91
2022-10-20T11:35:28.141Z,1009.66
2022-10-20T11:45:28.012Z,1009.53
2022-10-20T11:55:28.179Z,1009.25
2022-10-20T12:05:28.083Z,1009.27
2022-10-20T12:15:28.237Z,1009.16
2022-10-20T12:25:28.126Z,1009.10
2022-10-20T12:35:27.991Z,1008.96
2022-10-20T12:45:28.163Z,1008.79
2022-10-20T13:05:28.206Z,1008.58
2022-10-20T13:15:28.182Z,1008.65
2022-10-20T13:25:28.076Z,1008.64
2022-10-20T13:35:28.224Z,1008.50
2022-10-20T13:45:28.426Z,1008.46
2022-10-20T13:55:28.527Z,1008.28
2022-10-20T14:05:28.363Z,1008.32
2022-10-20T14:15:28.194Z,1008.27
2022-10-20T14:25:28.492Z,1008.24
2022-10-20T14:35:28.397Z,1007.84
2022-10-20T14:45:28.525Z,1007.70
2022-10-20T14:55:28.276Z,1008.08
2022-10-20T15:05:28.400Z,1008.20
2022-10-20T15:15:28.509Z,1008.18
2022-10-20T15:25:28.259Z,1008.19
2022-10-20T15:35:28.598Z,1007.98
2022-10-20T15:45:28.252Z,1007.77
2022-10-20T15:55:28.313Z,1007.62
2022-10-20T16:05:28.514Z,1007.51
2022-10-20T16:15:30.375Z,1007.34
2022-10-20T16:25:28.545Z,1007.12
2022-10-20T16:35:28.395Z,1007.18
2022-10-20T16:45:28.467Z,1007.20
2022-10-20T16:55:28.565Z,1007.26
2022-10-20T17:05:28.548Z,1007.19
2022-10-20T17:15:28.439Z,1007.23
2022-10-20T17:25:28.432Z,1007.21
2022-10-20T17:35:28.643Z,1007.18
2022-10-20T17:45:28.556Z,1007.02
2022-10-20T17:55:28.516Z,1006.88
2022-10-20T18:05:28.459Z,1006.93
2022-10-20T18:15:28.539Z,1006.88
2022-10-20T18:25:28.424Z,1006.72
2022-10-20T18:35:28.472Z,1006.48
2022-10-20T18:45:28.534Z,1006.24
2022-10-20T18:55:28.662Z,1006.00
2022-10-20T19:05:28.783Z,1006.22
2022-10-20T19:15:28.971Z,1006.05
